sensor_id;sensor_type;location;lat;lon;timestamp;temperature;humidity
18047;DHT22;9148;51.454;13.862;2022-12-13T00:01:22;-1.70;99.90
18047;DHT22;9148;51.454;13.862;2022-12-13T00:03:48;-1.70;99.90
18047;DHT22;9148;51.454;13.862;2022-12-13T00:06:16;-1.70;99.90
18047;DHT22;9148;51.454;13.862;2022-12-13T00:08:42;-1.80;99.90
18047;DHT22;9148;51.454;13.862;2022-12-13T00:11:11;-1.70;99.90
18047;DHT22;9148;51.454;13.862;2022-12-13T00:13:38;-1.60;99.90
18047;DHT22;9148;51.454;13.862;2022-12-13T00:16:08;-1.70;99.90
18047;DHT22;9148;51.454;13.862;2022-12-13T00:18:36;-1.70;99.90
18047;DHT22;9148;51.454;13.862;2022-12-13T00:21:06;-1.70;99.90
18047;DHT22;9148;51.454;13.862;2022-12-13T00:23:33;-1.70;99.90
18047;DHT22;9148;51.454;13.862;2022-12-13T00:26:08;-1.80;99.90
18047;DHT22;9148;51.454;13.862;2022-12-13T00:28:36;-1.70;99.90
18047;DHT22;9148;51.454;13.862;2022-12-13T00:31:02;-1.80;99.90
18047;DHT22;9148;51.454;13.862;2022-12-13T00:33:29;-1.70;99.90
18047;DHT22;9148;51.454;13.862;2022-12-13T00:35:55;-1.80;99.90
18047;DHT22;9148;51.454;13.862;2022-12-13T00:38:21;-1.90;99.90
18047;DHT22;9148;51.454;13.862;2022-12-13T00:40:47;-1.80;99.90
18047;DHT22;9148;51.454;13.862;2022-12-13T00:43:13;-2.00;99.90
18047;DHT22;9148;51.454;13.862;2022-12-13T00:45:39;-1.90;99.90
18047;DHT22;9148;51.454;13.862;2022-12-13T00:48:05;-1.90;99.90
18047;DHT22;9148;51.454;13.862;2022-12-13T00:50:31;-1.80;99.90
18047;DHT22;9148;51.454;13.862;2022-12-13T00:52:58;-1.90;99.90
18047;DHT22;9148;51.454;13.862;2022-12-13T00:55:24;-1.90;99.90
18047;DHT22;9148;51.454;13.862;2022-12-13T00:57:50;-1.90;99.90
18047;DHT22;9148;51.454;13.862;2022-12-13T01:00:17;-1.90;99.90
18047;DHT22;9148;51.454;13.862;2022-12-13T01:02:42;-1.90;99.90
18047;DHT22;9148;51.454;13.862;2022-12-13T01:05:09;-2.00;99.90
18047;DHT22;9148;51.454;13.862;2022-12-13T01:07:37;-2.00;99.90
18047;DHT22;9148;51.454;13.862;2022-12-13T01:10:05;-1.90;99.90
18047;DHT22;9148;51.454;13.862;2022-12-13T01:12:32;-2.00;99.90
18047;DHT22;9148;51.454;13.862;2022-12-13T01:14:58;-2.00;99.90
18047;DHT22;9148;51.454;13.862;2022-12-13T01:17:24;-1.90;99.90
18047;DHT22;9148;51.454;13.862;2022-12-13T01:19:50;-1.90;99.90
18047;DHT22;9148;51.454;13.862;2022-12-13T01:22:16;-2.00;99.90
18047;DHT22;9148;51.454;13.862;2022-12-13T01:24:42;-1.90;99.90
18047;DHT22;9148;51.454;13.862;2022-12-13T01:27:08;-2.00;99.90
18047;DHT22;9148;51.454;13.862;2022-12-13T01:29:34;-2.00;99.90
18047;DHT22;9148;51.454;13.862;2022-12-13T01:31:59;-1.60;99.90
18047;DHT22;9148;51.454;13.862;2022-12-13T01:34:25;-1.90;99.90
18047;DHT22;9148;51.454;13.862;2022-12-13T01:36:53;-2.00;99.90
18047;DHT22;9148;51.454;13.862;2022-12-13T01:39:19;-2.00;99.90
18047;DHT22;9148;51.454;13.862;2022-12-13T01:41:48;-2.10;99.90
18047;DHT22;9148;51.454;13.862;2022-12-13T01:50:09;-2.00;99.90
18047;DHT22;9148;51.454;13.862;2022-12-13T01:52:37;-2.10;99.90
18047;DHT22;9148;51.454;13.862;2022-12-13T01:55:05;-2.30;99.90
18047;DHT22;9148;51.454;13.862;2022-12-13T01:57:33;-2.10;99.90
18047;DHT22;9148;51.454;13.862;2022-12-13T02:00:04;-2.00;99.90
18047;DHT22;9148;51.454;13.862;2022-12-13T02:02:32;-2.00;99.90
18047;DHT22;9148;51.454;13.862;2022-12-13T02:05:14;-2.00;99.90
18047;DHT22;9148;51.454;13.862;2022-12-13T02:07:46;-1.00;99.90
18047;DHT22;9148;51.454;13.862;2022-12-13T02:10:13;-2.00;99.90
18047;DHT22;9148;51.454;13.862;2022-12-13T02:12:39;-2.00;99.90
18047;DHT22;9148;51.454;13.862;2022-12-13T02:15:12;-2.00;99.90
18047;DHT22;9148;51.454;13.862;2022-12-13T02:18:12;-1.90;99.90
18047;DHT22;9148;51.454;13.862;2022-12-13T02:32:42;-2.10;99.90
18047;DHT22;9148;51.454;13.862;2022-12-13T02:34:49;-2.20;99.90
18047;DHT22;9148;51.454;13.862;2022-12-13T02:44:02;-2.00;99.90
18047;DHT22;9148;51.454;13.862;2022-12-13T02:46:38;-1.00;99.90
18047;DHT22;9148;51.454;13.862;2022-12-13T02:49:08;-2.00;99.90
18047;DHT22;9148;51.454;13.862;2022-12-13T02:51:35;-2.00;99.90
18047;DHT22;9148;51.454;13.862;2022-12-13T02:54:03;-2.10;99.90
18047;DHT22;9148;51.454;13.862;2022-12-13T02:56:30;-2.00;99.90
18047;DHT22;9148;51.454;13.862;2022-12-13T02:58:57;-2.10;99.90
18047;DHT22;9148;51.454;13.862;2022-12-13T03:01:44;-2.00;99.90
18047;DHT22;9148;51.454;13.862;2022-12-13T03:08:17;-2.00;99.90
18047;DHT22;9148;51.454;13.862;2022-12-13T03:11:03;-2.00;99.90
18047;DHT22;9148;51.454;13.862;2022-12-13T03:13:51;-2.00;99.90
18047;DHT22;9148;51.454;13.862;2022-12-13T03:16:29;-2.10;99.90
18047;DHT22;9148;51.454;13.862;2022-12-13T03:19:05;-2.20;99.90
18047;DHT22;9148;51.454;13.862;2022-12-13T03:21:51;-2.10;99.90
18047;DHT22;9148;51.454;13.862;2022-12-13T03:24:19;-2.10;99.90
18047;DHT22;9148;51.454;13.862;2022-12-13T03:26:47;-2.20;99.90
18047;DHT22;9148;51.454;13.862;2022-12-13T03:29:14;-2.10;99.90
18047;DHT22;9148;51.454;13.862;2022-12-13T03:31:40;-1.70;99.90
18047;DHT22;9148;51.454;13.862;2022-12-13T03:34:06;-2.20;99.90
18047;DHT22;9148;51.454;13.862;2022-12-13T03:36:32;-2.10;99.90
18047;DHT22;9148;51.454;13.862;2022-12-13T03:38:58;-2.10;99.90
18047;DHT22;9148;51.454;13.862;2022-12-13T03:41:25;-2.10;99.90
18047;DHT22;9148;51.454;13.862;2022-12-13T03:43:59;-2.10;99.90
18047;DHT22;9148;51.454;13.862;2022-12-13T03:46:25;-2.10;99.90
18047;DHT22;9148;51.454;13.862;2022-12-13T03:48:50;-2.10;99.90
18047;DHT22;9148;51.454;13.862;2022-12-13T03:51:16;-2.10;99.90
18047;DHT22;9148;51.454;13.862;2022-12-13T03:53:42;-2.10;99.90
18047;DHT22;9148;51.454;13.862;2022-12-13T03:56:08;-2.10;99.90
18047;DHT22;9148;51.454;13.862;2022-12-13T03:58:34;-2.10;99.90
18047;DHT22;9148;51.454;13.862;2022-12-13T04:01:00;-2.00;99.90
18047;DHT22;9148;51.454;13.862;2022-12-13T04:03:26;-2.10;99.90
18047;DHT22;9148;51.454;13.862;2022-12-13T04:05:51;-2.20;99.90
18047;DHT22;9148;51.454;13.862;2022-12-13T04:08:17;-2.20;99.90
18047;DHT22;9148;51.454;13.862;2022-12-13T04:10:43;-2.20;99.90
18047;DHT22;9148;51.454;13.862;2022-12-13T04:13:09;-2.10;99.90
18047;DHT22;9148;51.454;13.862;2022-12-13T04:15:53;-2.10;99.90
18047;DHT22;9148;51.454;13.862;2022-12-13T04:18:19;-2.20;99.90
18047;DHT22;9148;51.454;13.862;2022-12-13T04:20:46;-2.20;99.90
18047;DHT22;9148;51.454;13.862;2022-12-13T04:23:12;-2.10;99.90
18047;DHT22;9148;51.454;13.862;2022-12-13T04:25:38;-2.10;99.90
18047;DHT22;9148;51.454;13.862;2022-12-13T04:28:05;-2.10;99.90
18047;DHT22;9148;51.454;13.862;2022-12-13T04:30:31;-2.20;99.90
18047;DHT22;9148;51.454;13.862;2022-12-13T04:32:57;-2.30;99.90
18047;DHT22;9148;51.454;13.862;2022-12-13T04:35:23;-2.10;99.90
18047;DHT22;9148;51.454;13.862;2022-12-13T04:37:48;-2.20;99.90
18047;DHT22;9148;51.454;13.862;2022-12-13T04:40:14;-2.10;99.90
18047;DHT22;9148;51.454;13.862;2022-12-13T04:42:40;-2.10;99.90
18047;DHT22;9148;51.454;13.862;2022-12-13T04:45:06;-2.20;99.90
18047;DHT22;9148;51.454;13.862;2022-12-13T04:47:32;-2.80;99.90
18047;DHT22;9148;51.454;13.862;2022-12-13T04:49:58;-2.10;99.90
18047;DHT22;9148;51.454;13.862;2022-12-13T04:52:23;-1.60;99.90
18047;DHT22;9148;51.454;13.862;2022-12-13T04:54:49;-2.20;99.90
18047;DHT22;9148;51.454;13.862;2022-12-13T04:57:15;-2.10;99.90
18047;DHT22;9148;51.454;13.862;2022-12-13T04:59:41;-2.10;99.90
18047;DHT22;9148;51.454;13.862;2022-12-13T05:02:09;-2.30;99.90
18047;DHT22;9148;51.454;13.862;2022-12-13T05:04:35;-2.20;99.90
18047;DHT22;9148;51.454;13.862;2022-12-13T05:07:01;-2.10;99.90
18047;DHT22;9148;51.454;13.862;2022-12-13T05:09:27;-2.20;99.90
18047;DHT22;9148;51.454;13.862;2022-12-13T05:11:52;-2.20;99.90
18047;DHT22;9148;51.454;13.862;2022-12-13T05:14:18;-2.10;99.90
18047;DHT22;9148;51.454;13.862;2022-12-13T05:16:44;-2.10;99.90
18047;DHT22;9148;51.454;13.862;2022-12-13T05:19:09;-2.20;99.90
18047;DHT22;9148;51.454;13.862;2022-12-13T05:21:35;-2.20;99.90
18047;DHT22;9148;51.454;13.862;2022-12-13T05:24:01;-2.10;99.90
18047;DHT22;9148;51.454;13.862;2022-12-13T05:26:27;-1.50;99.90
18047;DHT22;9148;51.454;13.862;2022-12-13T05:28:57;-2.10;99.90
18047;DHT22;9148;51.454;13.862;2022-12-13T05:31:23;-2.10;99.90
18047;DHT22;9148;51.454;13.862;2022-12-13T05:33:52;-1.20;99.90
18047;DHT22;9148;51.454;13.862;2022-12-13T05:36:18;-2.00;99.90
18047;DHT22;9148;51.454;13.862;2022-12-13T05:38:44;-2.20;99.90
18047;DHT22;9148;51.454;13.862;2022-12-13T05:41:14;-2.10;99.90
18047;DHT22;9148;51.454;13.862;2022-12-13T05:43:41;-1.30;99.90
18047;DHT22;9148;51.454;13.862;2022-12-13T05:46:07;-2.10;99.90
18047;DHT22;9148;51.454;13.862;2022-12-13T05:48:33;-0.80;99.90
18047;DHT22;9148;51.454;13.862;2022-12-13T05:50:58;-2.10;99.90
18047;DHT22;9148;51.454;13.862;2022-12-13T05:53:24;-2.00;99.90
18047;DHT22;9148;51.454;13.862;2022-12-13T05:55:50;-2.10;99.90
18047;DHT22;9148;51.454;13.862;2022-12-13T05:58:15;-2.10;99.90
18047;DHT22;9148;51.454;13.862;2022-12-13T06:00:42;-2.00;99.90
18047;DHT22;9148;51.454;13.862;2022-12-13T06:03:08;-2.10;99.90
18047;DHT22;9148;51.454;13.862;2022-12-13T06:05:33;-2.00;99.90
18047;DHT22;9148;51.454;13.862;2022-12-13T06:08:00;-2.20;99.90
18047;DHT22;9148;51.454;13.862;2022-12-13T06:10:26;-2.10;99.90
18047;DHT22;9148;51.454;13.862;2022-12-13T06:12:52;-2.10;99.90
18047;DHT22;9148;51.454;13.862;2022-12-13T06:15:18;-2.10;99.90
18047;DHT22;9148;51.454;13.862;2022-12-13T06:17:44;-2.20;99.90
18047;DHT22;9148;51.454;13.862;2022-12-13T06:20:10;-2.20;99.90
18047;DHT22;9148;51.454;13.862;2022-12-13T06:22:36;-2.20;99.90
18047;DHT22;9148;51.454;13.862;2022-12-13T06:25:02;-2.30;99.90
18047;DHT22;9148;51.454;13.862;2022-12-13T06:27:27;-2.20;99.90
18047;DHT22;9148;51.454;13.862;2022-12-13T06:29:53;-2.20;99.90
18047;DHT22;9148;51.454;13.862;2022-12-13T06:32:19;-2.10;99.90
18047;DHT22;9148;51.454;13.862;2022-12-13T06:34:45;-2.20;99.90
18047;DHT22;9148;51.454;13.862;2022-12-13T06:37:12;-2.20;99.90
18047;DHT22;9148;51.454;13.862;2022-12-13T06:39:38;-2.30;99.90
18047;DHT22;9148;51.454;13.862;2022-12-13T06:42:06;-2.30;99.90
18047;DHT22;9148;51.454;13.862;2022-12-13T06:44:34;-2.40;99.90
18047;DHT22;9148;51.454;13.862;2022-12-13T06:47:00;-2.40;99.90
18047;DHT22;9148;51.454;13.862;2022-12-13T06:49:26;-2.30;99.90
18047;DHT22;9148;51.454;13.862;2022-12-13T06:51:52;-2.30;99.90
18047;DHT22;9148;51.454;13.862;2022-12-13T06:54:18;-2.40;99.90
18047;DHT22;9148;51.454;13.862;2022-12-13T06:56:44;-2.20;99.90
18047;DHT22;9148;51.454;13.862;2022-12-13T06:59:11;-2.30;99.90
18047;DHT22;9148;51.454;13.862;2022-12-13T07:01:37;-2.30;99.90
18047;DHT22;9148;51.454;13.862;2022-12-13T07:04:02;-2.30;99.90
18047;DHT22;9148;51.454;13.862;2022-12-13T07:06:28;-2.30;99.90
18047;DHT22;9148;51.454;13.862;2022-12-13T07:08:56;-2.20;99.90
18047;DHT22;9148;51.454;13.862;2022-12-13T07:11:25;-2.30;99.90
18047;DHT22;9148;51.454;13.862;2022-12-13T07:13:52;-2.30;99.90
18047;DHT22;9148;51.454;13.862;2022-12-13T07:16:19;-2.30;99.90
18047;DHT22;9148;51.454;13.862;2022-12-13T07:18:45;-2.40;99.90
18047;DHT22;9148;51.454;13.862;2022-12-13T07:21:13;-2.40;99.90
18047;DHT22;9148;51.454;13.862;2022-12-13T07:23:40;-2.40;99.90
18047;DHT22;9148;51.454;13.862;2022-12-13T07:26:07;-2.40;99.90
18047;DHT22;9148;51.454;13.862;2022-12-13T07:28:34;-2.40;99.90
18047;DHT22;9148;51.454;13.862;2022-12-13T07:31:05;-2.40;99.90
18047;DHT22;9148;51.454;13.862;2022-12-13T07:33:33;-2.40;99.90
18047;DHT22;9148;51.454;13.862;2022-12-13T07:36:18;-2.50;99.90
18047;DHT22;9148;51.454;13.862;2022-12-13T07:38:51;-1.80;99.90
18047;DHT22;9148;51.454;13.862;2022-12-13T07:41:18;-2.40;99.90
18047;DHT22;9148;51.454;13.862;2022-12-13T07:43:44;-2.10;99.90
18047;DHT22;9148;51.454;13.862;2022-12-13T07:46:10;-2.40;99.90
18047;DHT22;9148;51.454;13.862;2022-12-13T07:48:36;-3.10;99.90
18047;DHT22;9148;51.454;13.862;2022-12-13T07:51:04;-2.40;99.90
18047;DHT22;9148;51.454;13.862;2022-12-13T07:53:32;-2.50;99.90
18047;DHT22;9148;51.454;13.862;2022-12-13T07:56:01;-2.70;99.90
18047;DHT22;9148;51.454;13.862;2022-12-13T07:58:28;-2.40;99.90
18047;DHT22;9148;51.454;13.862;2022-12-13T08:00:58;-2.40;99.90
18047;DHT22;9148;51.454;13.862;2022-12-13T08:03:25;-2.40;99.90
18047;DHT22;9148;51.454;13.862;2022-12-13T08:08:28;-2.30;99.90
18047;DHT22;9148;51.454;13.862;2022-12-13T08:10:54;-2.40;99.90
18047;DHT22;9148;51.454;13.862;2022-12-13T08:13:20;-2.30;99.90
18047;DHT22;9148;51.454;13.862;2022-12-13T08:15:45;-2.30;99.90
18047;DHT22;9148;51.454;13.862;2022-12-13T08:18:11;-2.30;99.90
18047;DHT22;9148;51.454;13.862;2022-12-13T08:20:37;-2.30;99.90
18047;DHT22;9148;51.454;13.862;2022-12-13T08:23:02;-2.20;99.90
18047;DHT22;9148;51.454;13.862;2022-12-13T08:25:29;-1.50;99.90
18047;DHT22;9148;51.454;13.862;2022-12-13T08:27:55;-2.10;99.90
18047;DHT22;9148;51.454;13.862;2022-12-13T08:30:21;-2.20;99.90
18047;DHT22;9148;51.454;13.862;2022-12-13T08:32:48;-2.00;99.90
18047;DHT22;9148;51.454;13.862;2022-12-13T08:35:15;-2.10;99.90
18047;DHT22;9148;51.454;13.862;2022-12-13T08:37:40;-2.10;99.90
18047;DHT22;9148;51.454;13.862;2022-12-13T08:40:06;-1.10;99.90
18047;DHT22;9148;51.454;13.862;2022-12-13T08:42:32;-2.10;99.90
18047;DHT22;9148;51.454;13.862;2022-12-13T08:44:58;-2.00;99.90
18047;DHT22;9148;51.454;13.862;2022-12-13T08:47:25;-1.90;99.90
18047;DHT22;9148;51.454;13.862;2022-12-13T08:49:56;-1.90;99.90
18047;DHT22;9148;51.454;13.862;2022-12-13T08:52:26;-1.80;99.90
18047;DHT22;9148;51.454;13.862;2022-12-13T08:54:51;-1.50;99.90
18047;DHT22;9148;51.454;13.862;2022-12-13T08:57:17;-1.40;99.90
18047;DHT22;9148;51.454;13.862;2022-12-13T08:59:43;-1.20;99.90
18047;DHT22;9148;51.454;13.862;2022-12-13T09:02:13;-1.10;99.90
18047;DHT22;9148;51.454;13.862;2022-12-13T09:04:40;-0.90;99.90
18047;DHT22;9148;51.454;13.862;2022-12-13T09:07:06;-0.70;99.90
18047;DHT22;9148;51.454;13.862;2022-12-13T09:09:31;-0.20;99.90
18047;DHT22;9148;51.454;13.862;2022-12-13T09:11:57;0.00;99.90
18047;DHT22;9148;51.454;13.862;2022-12-13T09:14:22;0.50;99.90
18047;DHT22;9148;51.454;13.862;2022-12-13T09:16:48;0.80;99.90
18047;DHT22;9148;51.454;13.862;2022-12-13T09:19:14;1.10;99.90
18047;DHT22;9148;51.454;13.862;2022-12-13T09:21:39;1.10;99.90
18047;DHT22;9148;51.454;13.862;2022-12-13T09:24:05;1.00;99.90
18047;DHT22;9148;51.454;13.862;2022-12-13T09:26:31;0.90;99.90
18047;DHT22;9148;51.454;13.862;2022-12-13T09:28:56;0.60;99.90
18047;DHT22;9148;51.454;13.862;2022-12-13T09:31:22;0.30;99.90
18047;DHT22;9148;51.454;13.862;2022-12-13T09:33:48;1.00;99.90
18047;DHT22;9148;51.454;13.862;2022-12-13T09:36:18;0.00;99.90
18047;DHT22;9148;51.454;13.862;2022-12-13T09:38:45;-0.10;99.90
18047;DHT22;9148;51.454;13.862;2022-12-13T09:41:30;-0.20;99.90
18047;DHT22;9148;51.454;13.862;2022-12-13T09:44:21;-0.30;99.90
18047;DHT22;9148;51.454;13.862;2022-12-13T09:46:49;-0.40;99.90
18047;DHT22;9148;51.454;13.862;2022-12-13T09:51:49;-0.30;99.90
18047;DHT22;9148;51.454;13.862;2022-12-13T09:54:18;-0.30;99.90
18047;DHT22;9148;51.454;13.862;2022-12-13T09:56:47;-0.20;99.90
18047;DHT22;9148;51.454;13.862;2022-12-13T09:59:16;-0.30;99.90
18047;DHT22;9148;51.454;13.862;2022-12-13T10:01:43;-0.10;99.90
18047;DHT22;9148;51.454;13.862;2022-12-13T10:04:12;0.10;99.90
18047;DHT22;9148;51.454;13.862;2022-12-13T10:06:39;0.30;99.90
18047;DHT22;9148;51.454;13.862;2022-12-13T10:09:06;0.60;99.90
18047;DHT22;9148;51.454;13.862;2022-12-13T10:11:35;0.90;99.90
18047;DHT22;9148;51.454;13.862;2022-12-13T10:14:07;1.10;99.90
18047;DHT22;9148;51.454;13.862;2022-12-13T10:19:13;1.40;99.90
18047;DHT22;9148;51.454;13.862;2022-12-13T10:21:43;1.60;99.90
18047;DHT22;9148;51.454;13.862;2022-12-13T10:24:20;1.70;99.90
18047;DHT22;9148;51.454;13.862;2022-12-13T10:26:50;1.90;99.90
18047;DHT22;9148;51.454;13.862;2022-12-13T10:29:15;1.90;99.90
18047;DHT22;9148;51.454;13.862;2022-12-13T10:31:46;2.00;99.90
18047;DHT22;9148;51.454;13.862;2022-12-13T10:34:23;2.90;99.90
18047;DHT22;9148;51.454;13.862;2022-12-13T10:36:50;2.20;99.90
18047;DHT22;9148;51.454;13.862;2022-12-13T10:39:37;2.30;99.90
18047;DHT22;9148;51.454;13.862;2022-12-13T10:42:11;2.50;99.90
18047;DHT22;9148;51.454;13.862;2022-12-13T10:44:38;2.50;99.90
18047;DHT22;9148;51.454;13.862;2022-12-13T10:49:55;2.50;99.90
18047;DHT22;9148;51.454;13.862;2022-12-13T10:52:26;2.50;99.90
18047;DHT22;9148;51.454;13.862;2022-12-13T10:54:55;2.50;99.90
18047;DHT22;9148;51.454;13.862;2022-12-13T10:57:23;2.30;99.90
18047;DHT22;9148;51.454;13.862;2022-12-13T10:59:49;2.30;99.90
18047;DHT22;9148;51.454;13.862;2022-12-13T11:02:37;2.40;99.90
18047;DHT22;9148;51.454;13.862;2022-12-13T11:05:26;2.40;99.90
18047;DHT22;9148;51.454;13.862;2022-12-13T11:07:53;2.30;99.90
18047;DHT22;9148;51.454;13.862;2022-12-13T11:10:24;2.20;99.90
18047;DHT22;9148;51.454;13.862;2022-12-13T11:13:01;2.20;99.90
18047;DHT22;9148;51.454;13.862;2022-12-13T11:15:29;2.20;99.90
18047;DHT22;9148;51.454;13.862;2022-12-13T11:18:20;2.10;99.90
18047;DHT22;9148;51.454;13.862;2022-12-13T11:20:58;2.00;99.90
18047;DHT22;9148;51.454;13.862;2022-12-13T11:23:35;3.20;99.90
18047;DHT22;9148;51.454;13.862;2022-12-13T11:26:16;2.30;99.90
18047;DHT22;9148;51.454;13.862;2022-12-13T11:29:18;2.20;99.90
18047;DHT22;9148;51.454;13.862;2022-12-13T11:32:20;2.10;99.90
18047;DHT22;9148;51.454;13.862;2022-12-13T11:37:41;1.90;99.90
18047;DHT22;9148;51.454;13.862;2022-12-13T11:40:30;2.00;99.90
18047;DHT22;9148;51.454;13.862;2022-12-13T11:43:24;2.00;99.90
18047;DHT22;9148;51.454;13.862;2022-12-13T11:46:00;2.20;99.90
18047;DHT22;9148;51.454;13.862;2022-12-13T11:51:12;2.30;99.90
18047;DHT22;9148;51.454;13.862;2022-12-13T11:53:50;2.20;99.90
18047;DHT22;9148;51.454;13.862;2022-12-13T11:56:24;2.30;99.90
18047;DHT22;9148;51.454;13.862;2022-12-13T11:58:59;2.30;99.90
18047;DHT22;9148;51.454;13.862;2022-12-13T12:01:45;2.50;99.90
18047;DHT22;9148;51.454;13.862;2022-12-13T12:04:30;3.30;99.90
18047;DHT22;9148;51.454;13.862;2022-12-13T12:07:13;2.90;99.90
18047;DHT22;9148;51.454;13.862;2022-12-13T12:09:52;3.40;99.90
18047;DHT22;9148;51.454;13.862;2022-12-13T12:17:28;3.10;99.90
18047;DHT22;9148;51.454;13.862;2022-12-13T12:19:56;3.10;99.90
18047;DHT22;9148;51.454;13.862;2022-12-13T12:25:51;3.10;99.90
18047;DHT22;9148;51.454;13.862;2022-12-13T12:28:32;3.20;99.90
18047;DHT22;9148;51.454;13.862;2022-12-13T12:34:47;3.60;99.90
18047;DHT22;9148;51.454;13.862;2022-12-13T12:37:51;3.30;99.90
18047;DHT22;9148;51.454;13.862;2022-12-13T12:40:31;3.30;99.90
18047;DHT22;9148;51.454;13.862;2022-12-13T12:43:11;3.20;99.90
18047;DHT22;9148;51.454;13.862;2022-12-13T12:46:22;3.30;99.90
18047;DHT22;9148;51.454;13.862;2022-12-13T12:52:32;3.10;99.50
18047;DHT22;9148;51.454;13.862;2022-12-13T12:55:45;3.00;99.60
18047;DHT22;9148;51.454;13.862;2022-12-13T12:58:25;2.90;99.40
18047;DHT22;9148;51.454;13.862;2022-12-13T13:01:17;3.00;99.40
18047;DHT22;9148;51.454;13.862;2022-12-13T13:03:54;3.00;99.60
18047;DHT22;9148;51.454;13.862;2022-12-13T13:06:29;2.90;99.20
18047;DHT22;9148;51.454;13.862;2022-12-13T13:09:05;2.80;99.50
18047;DHT22;9148;51.454;13.862;2022-12-13T13:11:36;3.30;99.90
18047;DHT22;9148;51.454;13.862;2022-12-13T13:14:28;2.80;99.50
18047;DHT22;9148;51.454;13.862;2022-12-13T13:17:00;2.80;98.70
18047;DHT22;9148;51.454;13.862;2022-12-13T13:20:25;2.90;99.30
18047;DHT22;9148;51.454;13.862;2022-12-13T13:22:54;2.90;99.30
18047;DHT22;9148;51.454;13.862;2022-12-13T13:25:29;2.70;98.70
18047;DHT22;9148;51.454;13.862;2022-12-13T13:28:02;2.60;98.30
18047;DHT22;9148;51.454;13.862;2022-12-13T13:30:31;2.50;98.50
18047;DHT22;9148;51.454;13.862;2022-12-13T13:32:57;2.40;98.10
18047;DHT22;9148;51.454;13.862;2022-12-13T13:37:59;2.20;99.40
18047;DHT22;9148;51.454;13.862;2022-12-13T13:40:34;2.40;99.90
18047;DHT22;9148;51.454;13.862;2022-12-13T13:48:53;2.30;99.90
18047;DHT22;9148;51.454;13.862;2022-12-13T13:51:49;2.40;99.50
18047;DHT22;9148;51.454;13.862;2022-12-13T14:04:28;1.80;99.90
18047;DHT22;9148;51.454;13.862;2022-12-13T14:13:31;1.20;99.90
18047;DHT22;9148;51.454;13.862;2022-12-13T14:25:58;0.10;99.90
18047;DHT22;9148;51.454;13.862;2022-12-13T14:28:54;-0.30;99.90
18047;DHT22;9148;51.454;13.862;2022-12-13T14:31:36;-0.30;99.90
18047;DHT22;9148;51.454;13.862;2022-12-13T14:34:05;-0.70;99.90
18047;DHT22;9148;51.454;13.862;2022-12-13T14:36:33;-0.10;99.90
18047;DHT22;9148;51.454;13.862;2022-12-13T14:39:03;-0.90;99.90
18047;DHT22;9148;51.454;13.862;2022-12-13T14:41:31;-1.00;99.90
18047;DHT22;9148;51.454;13.862;2022-12-13T14:44:20;-1.00;99.90
18047;DHT22;9148;51.454;13.862;2022-12-13T14:46:55;-1.20;99.90
18047;DHT22;9148;51.454;13.862;2022-12-13T14:49:25;-1.40;99.90
18047;DHT22;9148;51.454;13.862;2022-12-13T14:51:57;-1.50;99.90
18047;DHT22;9148;51.454;13.862;2022-12-13T14:54:40;-1.60;99.90
18047;DHT22;9148;51.454;13.862;2022-12-13T14:57:22;-1.90;99.90
18047;DHT22;9148;51.454;13.862;2022-12-13T14:59:51;-2.00;99.90
18047;DHT22;9148;51.454;13.862;2022-12-13T15:02:24;-2.10;99.90
18047;DHT22;9148;51.454;13.862;2022-12-13T15:04:56;-2.10;99.90
18047;DHT22;9148;51.454;13.862;2022-12-13T15:07:34;-2.30;99.90
18047;DHT22;9148;51.454;13.862;2022-12-13T15:10:04;-2.40;99.90
18047;DHT22;9148;51.454;13.862;2022-12-13T15:12:45;-2.50;99.90
18047;DHT22;9148;51.454;13.862;2022-12-13T15:15:25;-2.50;99.90
18047;DHT22;9148;51.454;13.862;2022-12-13T15:18:18;-2.60;99.90
18047;DHT22;9148;51.454;13.862;2022-12-13T15:20:46;-2.80;99.90
18047;DHT22;9148;51.454;13.862;2022-12-13T15:23:22;-2.80;99.90
18047;DHT22;9148;51.454;13.862;2022-12-13T15:25:57;-2.90;99.90
18047;DHT22;9148;51.454;13.862;2022-12-13T15:28:41;-3.00;99.90
18047;DHT22;9148;51.454;13.862;2022-12-13T15:31:08;-3.10;99.90
18047;DHT22;9148;51.454;13.862;2022-12-13T15:33:35;-3.20;99.90
18047;DHT22;9148;51.454;13.862;2022-12-13T15:38:49;-3.30;99.90
18047;DHT22;9148;51.454;13.862;2022-12-13T15:41:40;-3.40;99.90
18047;DHT22;9148;51.454;13.862;2022-12-13T15:44:21;-3.50;99.90
18047;DHT22;9148;51.454;13.862;2022-12-13T15:46:51;-3.40;99.90
18047;DHT22;9148;51.454;13.862;2022-12-13T15:49:34;-3.60;99.90
18047;DHT22;9148;51.454;13.862;2022-12-13T15:54:55;-3.10;99.90
18047;DHT22;9148;51.454;13.862;2022-12-13T15:57:25;-3.70;99.90
18047;DHT22;9148;51.454;13.862;2022-12-13T16:00:03;-3.70;99.90
18047;DHT22;9148;51.454;13.862;2022-12-13T16:08:01;-4.10;99.90
18047;DHT22;9148;51.454;13.862;2022-12-13T16:10:29;-4.00;99.90
18047;DHT22;9148;51.454;13.862;2022-12-13T16:13:00;-4.20;99.90
18047;DHT22;9148;51.454;13.862;2022-12-13T16:15:45;-4.20;99.90
18047;DHT22;9148;51.454;13.862;2022-12-13T16:18:22;-4.20;99.90
18047;DHT22;9148;51.454;13.862;2022-12-13T16:20:58;-4.30;99.90
18047;DHT22;9148;51.454;13.862;2022-12-13T16:23:24;-4.30;99.90
18047;DHT22;9148;51.454;13.862;2022-12-13T16:25:50;-4.40;99.90
18047;DHT22;9148;51.454;13.862;2022-12-13T16:28:16;-4.30;99.90
18047;DHT22;9148;51.454;13.862;2022-12-13T16:33:21;-4.60;99.90
18047;DHT22;9148;51.454;13.862;2022-12-13T16:35:48;-4.60;99.90
18047;DHT22;9148;51.454;13.862;2022-12-13T16:38:15;-4.70;99.90
18047;DHT22;9148;51.454;13.862;2022-12-13T16:40:43;-4.60;99.90
18047;DHT22;9148;51.454;13.862;2022-12-13T16:43:16;-4.70;99.90
18047;DHT22;9148;51.454;13.862;2022-12-13T16:45:46;-3.80;99.90
18047;DHT22;9148;51.454;13.862;2022-12-13T16:48:15;-4.70;99.90
18047;DHT22;9148;51.454;13.862;2022-12-13T16:50:44;-4.80;99.90
18047;DHT22;9148;51.454;13.862;2022-12-13T16:53:12;-4.90;99.90
18047;DHT22;9148;51.454;13.862;2022-12-13T16:55:38;-4.90;99.90
18047;DHT22;9148;51.454;13.862;2022-12-13T16:58:06;-4.90;99.90
18047;DHT22;9148;51.454;13.862;2022-12-13T17:00:36;-4.90;99.90
18047;DHT22;9148;51.454;13.862;2022-12-13T17:03:03;-5.10;99.90
18047;DHT22;9148;51.454;13.862;2022-12-13T17:05:29;-5.00;99.90
18047;DHT22;9148;51.454;13.862;2022-12-13T17:07:55;-5.00;99.90
18047;DHT22;9148;51.454;13.862;2022-12-13T17:10:22;-5.10;99.90
18047;DHT22;9148;51.454;13.862;2022-12-13T17:12:48;-5.20;99.90
18047;DHT22;9148;51.454;13.862;2022-12-13T17:15:14;-5.10;99.90
18047;DHT22;9148;51.454;13.862;2022-12-13T17:17:42;-5.20;99.90
18047;DHT22;9148;51.454;13.862;2022-12-13T17:20:10;-5.40;99.90
18047;DHT22;9148;51.454;13.862;2022-12-13T17:22:39;-4.60;99.90
18047;DHT22;9148;51.454;13.862;2022-12-13T17:25:06;-5.30;99.90
18047;DHT22;9148;51.454;13.862;2022-12-13T17:27:33;-5.30;99.90
18047;DHT22;9148;51.454;13.862;2022-12-13T17:29:59;-5.30;99.90
18047;DHT22;9148;51.454;13.862;2022-12-13T17:32:26;-5.30;99.90
18047;DHT22;9148;51.454;13.862;2022-12-13T17:34:52;-5.40;99.90
18047;DHT22;9148;51.454;13.862;2022-12-13T17:37:18;-5.50;99.90
18047;DHT22;9148;51.454;13.862;2022-12-13T17:39:44;-5.50;99.90
18047;DHT22;9148;51.454;13.862;2022-12-13T17:42:09;-5.50;99.90
18047;DHT22;9148;51.454;13.862;2022-12-13T17:44:35;-5.60;99.90